sensor_id;sensor_type;location;lat;lon;timestamp;temperature;humidity
37530;DHT22;23374;52.758;6.872;2023-04-25T00:00:54;7.60;1.00
37530;DHT22;23374;52.758;6.872;2023-04-25T00:03:14;7.60;1.00
37530;DHT22;23374;52.758;6.872;2023-04-25T00:05:34;7.50;1.00
37530;DHT22;23374;52.758;6.872;2023-04-25T00:07:57;7.50;1.00
37530;DHT22;23374;52.758;6.872;2023-04-25T00:10:20;7.50;1.00
37530;DHT22;23374;52.758;6.872;2023-04-25T00:12:40;7.50;1.00
37530;DHT22;23374;52.758;6.872;2023-04-25T00:15:01;7.50;1.00
37530;DHT22;23374;52.758;6.872;2023-04-25T00:17:22;7.50;1.00
37530;DHT22;23374;52.758;6.872;2023-04-25T00:19:44;7.40;1.00
37530;DHT22;23374;52.758;6.872;2023-04-25T00:22:06;7.50;1.00
37530;DHT22;23374;52.758;6.872;2023-04-25T00:24:27;7.50;1.00
37530;DHT22;23374;52.758;6.872;2023-04-25T00:26:47;7.50;1.00
37530;DHT22;23374;52.758;6.872;2023-04-25T00:29:07;7.50;1.00
37530;DHT22;23374;52.758;6.872;2023-04-25T00:31:28;7.50;1.00
37530;DHT22;23374;52.758;6.872;2023-04-25T00:33:49;7.40;1.00
37530;DHT22;23374;52.758;6.872;2023-04-25T00:36:09;7.40;1.00
37530;DHT22;23374;52.758;6.872;2023-04-25T00:38:29;7.40;1.00
37530;DHT22;23374;52.758;6.872;2023-04-25T00:40:50;7.40;1.00
37530;DHT22;23374;52.758;6.872;2023-04-25T00:43:10;7.40;1.00
37530;DHT22;23374;52.758;6.872;2023-04-25T00:45:30;7.40;1.00
37530;DHT22;23374;52.758;6.872;2023-04-25T00:47:51;7.30;1.00
37530;DHT22;23374;52.758;6.872;2023-04-25T00:50:13;7.30;1.00
37530;DHT22;23374;52.758;6.872;2023-04-25T00:52:33;7.30;1.00
37530;DHT22;23374;52.758;6.872;2023-04-25T00:54:53;7.20;1.00
37530;DHT22;23374;52.758;6.872;2023-04-25T00:57:14;7.20;1.00
37530;DHT22;23374;52.758;6.872;2023-04-25T00:59:36;7.20;1.00
37530;DHT22;23374;52.758;6.872;2023-04-25T01:01:57;7.10;1.00
37530;DHT22;23374;52.758;6.872;2023-04-25T01:04:18;7.10;1.00
37530;DHT22;23374;52.758;6.872;2023-04-25T01:06:39;7.10;1.00
37530;DHT22;23374;52.758;6.872;2023-04-25T01:09:00;7.00;1.00
37530;DHT22;23374;52.758;6.872;2023-04-25T01:11:21;7.00;1.00
37530;DHT22;23374;52.758;6.872;2023-04-25T01:13:41;7.00;1.00
37530;DHT22;23374;52.758;6.872;2023-04-25T01:16:02;7.00;1.00
37530;DHT22;23374;52.758;6.872;2023-04-25T01:18:23;7.00;1.00
37530;DHT22;23374;52.758;6.872;2023-04-25T01:20:44;7.00;1.00
37530;DHT22;23374;52.758;6.872;2023-04-25T01:24:47;6.90;1.00
37530;DHT22;23374;52.758;6.872;2023-04-25T01:27:08;7.00;1.00
37530;DHT22;23374;52.758;6.872;2023-04-25T01:29:29;7.00;1.00
37530;DHT22;23374;52.758;6.872;2023-04-25T01:31:52;7.00;1.00
37530;DHT22;23374;52.758;6.872;2023-04-25T01:34:13;7.00;1.00
37530;DHT22;23374;52.758;6.872;2023-04-25T01:36:34;7.00;1.00
37530;DHT22;23374;52.758;6.872;2023-04-25T01:38:55;7.00;1.00
37530;DHT22;23374;52.758;6.872;2023-04-25T01:41:16;6.90;1.00
37530;DHT22;23374;52.758;6.872;2023-04-25T01:43:38;6.90;1.00
37530;DHT22;23374;52.758;6.872;2023-04-25T01:45:58;6.90;1.00
37530;DHT22;23374;52.758;6.872;2023-04-25T01:48:19;6.90;1.00
37530;DHT22;23374;52.758;6.872;2023-04-25T01:50:42;6.90;1.00
37530;DHT22;23374;52.758;6.872;2023-04-25T01:53:04;6.80;1.00
37530;DHT22;23374;52.758;6.872;2023-04-25T01:55:24;6.90;1.00
37530;DHT22;23374;52.758;6.872;2023-04-25T01:57:45;6.80;1.00
37530;DHT22;23374;52.758;6.872;2023-04-25T02:00:08;6.80;1.00
37530;DHT22;23374;52.758;6.872;2023-04-25T02:02:29;6.80;1.00
37530;DHT22;23374;52.758;6.872;2023-04-25T02:04:49;6.80;1.00
37530;DHT22;23374;52.758;6.872;2023-04-25T02:07:09;6.80;1.00
37530;DHT22;23374;52.758;6.872;2023-04-25T02:09:29;6.80;1.00
37530;DHT22;23374;52.758;6.872;2023-04-25T02:11:50;6.70;1.00
37530;DHT22;23374;52.758;6.872;2023-04-25T02:14:10;6.80;1.00
37530;DHT22;23374;52.758;6.872;2023-04-25T02:16:31;6.70;1.00
37530;DHT22;23374;52.758;6.872;2023-04-25T02:18:51;6.70;1.00
37530;DHT22;23374;52.758;6.872;2023-04-25T02:21:12;6.70;1.00
37530;DHT22;23374;52.758;6.872;2023-04-25T02:23:32;6.80;1.00
37530;DHT22;23374;52.758;6.872;2023-04-25T02:25:53;6.80;1.00
37530;DHT22;23374;52.758;6.872;2023-04-25T02:28:15;6.80;1.00
37530;DHT22;23374;52.758;6.872;2023-04-25T02:30:35;6.70;1.00
37530;DHT22;23374;52.758;6.872;2023-04-25T02:32:56;6.80;1.00
37530;DHT22;23374;52.758;6.872;2023-04-25T02:35:16;6.80;1.00
37530;DHT22;23374;52.758;6.872;2023-04-25T02:37:38;6.80;1.00
37530;DHT22;23374;52.758;6.872;2023-04-25T02:39:59;6.70;1.00
37530;DHT22;23374;52.758;6.872;2023-04-25T02:42:19;6.70;1.00
37530;DHT22;23374;52.758;6.872;2023-04-25T02:44:39;6.70;1.00
37530;DHT22;23374;52.758;6.872;2023-04-25T02:46:59;6.70;1.00
37530;DHT22;23374;52.758;6.872;2023-04-25T02:49:19;6.70;1.00
37530;DHT22;23374;52.758;6.872;2023-04-25T02:51:39;6.70;1.00
37530;DHT22;23374;52.758;6.872;2023-04-25T02:53:59;6.70;1.00
37530;DHT22;23374;52.758;6.872;2023-04-25T02:56:20;6.70;1.00
37530;DHT22;23374;52.758;6.872;2023-04-25T02:58:40;6.70;1.00
37530;DHT22;23374;52.758;6.872;2023-04-25T03:01:00;6.70;1.00
37530;DHT22;23374;52.758;6.872;2023-04-25T03:03:21;6.70;99.90
37530;DHT22;23374;52.758;6.872;2023-04-25T03:05:44;6.70;99.90
37530;DHT22;23374;52.758;6.872;2023-04-25T03:08:06;6.70;99.90
37530;DHT22;23374;52.758;6.872;2023-04-25T03:10:26;6.70;99.90
37530;DHT22;23374;52.758;6.872;2023-04-25T03:12:47;6.70;99.90
37530;DHT22;23374;52.758;6.872;2023-04-25T03:15:08;6.70;99.90
37530;DHT22;23374;52.758;6.872;2023-04-25T03:17:29;6.70;99.90
37530;DHT22;23374;52.758;6.872;2023-04-25T03:19:49;6.70;99.90
37530;DHT22;23374;52.758;6.872;2023-04-25T03:22:10;6.70;99.90
37530;DHT22;23374;52.758;6.872;2023-04-25T03:24:30;6.70;99.90
37530;DHT22;23374;52.758;6.872;2023-04-25T03:26:50;6.70;99.90
37530;DHT22;23374;52.758;6.872;2023-04-25T03:29:11;6.60;16.50
37530;DHT22;23374;52.758;6.872;2023-04-25T03:31:31;6.60;99.90
37530;DHT22;23374;52.758;6.872;2023-04-25T03:33:51;6.60;99.90
37530;DHT22;23374;52.758;6.872;2023-04-25T03:36:12;6.60;99.90
37530;DHT22;23374;52.758;6.872;2023-04-25T03:38:32;6.60;50.80
37530;DHT22;23374;52.758;6.872;2023-04-25T03:40:53;6.60;1.00
37530;DHT22;23374;52.758;6.872;2023-04-25T03:43:13;6.60;1.00
37530;DHT22;23374;52.758;6.872;2023-04-25T03:45:33;6.60;1.00
37530;DHT22;23374;52.758;6.872;2023-04-25T03:47:54;6.60;1.00
37530;DHT22;23374;52.758;6.872;2023-04-25T03:50:14;6.60;1.00
37530;DHT22;23374;52.758;6.872;2023-04-25T03:52:34;6.60;1.00
37530;DHT22;23374;52.758;6.872;2023-04-25T03:54:55;6.60;1.00
37530;DHT22;23374;52.758;6.872;2023-04-25T03:57:15;6.60;1.00
37530;DHT22;23374;52.758;6.872;2023-04-25T03:59:36;6.60;1.00
37530;DHT22;23374;52.758;6.872;2023-04-25T04:01:56;6.60;1.00
37530;DHT22;23374;52.758;6.872;2023-04-25T04:04:17;6.60;1.00
37530;DHT22;23374;52.758;6.872;2023-04-25T04:06:37;6.60;1.00
37530;DHT22;23374;52.758;6.872;2023-04-25T04:08:58;6.60;1.00
37530;DHT22;23374;52.758;6.872;2023-04-25T04:11:18;6.50;1.00
37530;DHT22;23374;52.758;6.872;2023-04-25T04:13:39;6.50;1.00
37530;DHT22;23374;52.758;6.872;2023-04-25T04:15:59;6.50;1.00
37530;DHT22;23374;52.758;6.872;2023-04-25T04:18:19;6.50;1.00
37530;DHT22;23374;52.758;6.872;2023-04-25T04:20:39;6.40;1.00
37530;DHT22;23374;52.758;6.872;2023-04-25T04:23:00;6.40;1.00
37530;DHT22;23374;52.758;6.872;2023-04-25T04:25:21;6.40;99.90
37530;DHT22;23374;52.758;6.872;2023-04-25T04:27:41;6.40;1.00
37530;DHT22;23374;52.758;6.872;2023-04-25T04:30:02;6.40;99.90
37530;DHT22;23374;52.758;6.872;2023-04-25T04:32:23;6.40;99.90
37530;DHT22;23374;52.758;6.872;2023-04-25T04:34:43;6.40;1.00
37530;DHT22;23374;52.758;6.872;2023-04-25T04:37:04;6.40;99.90
37530;DHT22;23374;52.758;6.872;2023-04-25T04:39:24;6.30;99.90
37530;DHT22;23374;52.758;6.872;2023-04-25T04:41:45;6.30;99.90
37530;DHT22;23374;52.758;6.872;2023-04-25T04:44:05;6.30;99.90
37530;DHT22;23374;52.758;6.872;2023-04-25T04:46:26;6.30;99.90
37530;DHT22;23374;52.758;6.872;2023-04-25T04:48:47;6.30;99.90
37530;DHT22;23374;52.758;6.872;2023-04-25T04:51:08;6.30;99.90
37530;DHT22;23374;52.758;6.872;2023-04-25T04:53:28;6.30;99.90
37530;DHT22;23374;52.758;6.872;2023-04-25T04:55:48;6.40;99.90
37530;DHT22;23374;52.758;6.872;2023-04-25T04:58:08;6.30;99.90
37530;DHT22;23374;52.758;6.872;2023-04-25T05:00:29;6.40;99.90
37530;DHT22;23374;52.758;6.872;2023-04-25T05:02:49;6.40;99.90
37530;DHT22;23374;52.758;6.872;2023-04-25T05:05:09;6.40;99.90
37530;DHT22;23374;52.758;6.872;2023-04-25T05:07:30;6.40;39.20
37530;DHT22;23374;52.758;6.872;2023-04-25T05:09:50;6.40;1.00
37530;DHT22;23374;52.758;6.872;2023-04-25T05:12:11;6.50;1.00
37530;DHT22;23374;52.758;6.872;2023-04-25T05:14:31;6.70;1.00
37530;DHT22;23374;52.758;6.872;2023-04-25T05:16:51;6.90;1.00
37530;DHT22;23374;52.758;6.872;2023-04-25T05:19:11;7.00;99.90
37530;DHT22;23374;52.758;6.872;2023-04-25T05:21:31;7.30;1.00
37530;DHT22;23374;52.758;6.872;2023-04-25T05:23:52;7.40;88.80
37530;DHT22;23374;52.758;6.872;2023-04-25T05:26:12;7.40;99.90
37530;DHT22;23374;52.758;6.872;2023-04-25T05:28:33;7.40;99.90
37530;DHT22;23374;52.758;6.872;2023-04-25T05:30:54;7.40;99.90
37530;DHT22;23374;52.758;6.872;2023-04-25T05:33:14;7.30;1.00
37530;DHT22;23374;52.758;6.872;2023-04-25T05:35:35;7.20;49.40
37530;DHT22;23374;52.758;6.872;2023-04-25T05:37:56;7.10;99.90
37530;DHT22;23374;52.758;6.872;2023-04-25T05:40:16;7.00;99.90
37530;DHT22;23374;52.758;6.872;2023-04-25T05:42:37;7.00;99.90
37530;DHT22;23374;52.758;6.872;2023-04-25T05:44:58;6.90;99.90
37530;DHT22;23374;52.758;6.872;2023-04-25T05:47:18;6.90;1.00
37530;DHT22;23374;52.758;6.872;2023-04-25T05:49:38;7.00;1.00
37530;DHT22;23374;52.758;6.872;2023-04-25T05:51:59;7.10;1.00
37530;DHT22;23374;52.758;6.872;2023-04-25T05:54:19;7.10;99.90
37530;DHT22;23374;52.758;6.872;2023-04-25T05:56:40;7.10;1.00
37530;DHT22;23374;52.758;6.872;2023-04-25T05:59:00;7.00;99.90
37530;DHT22;23374;52.758;6.872;2023-04-25T06:01:22;7.00;1.00
37530;DHT22;23374;52.758;6.872;2023-04-25T06:03:43;7.00;99.90
37530;DHT22;23374;52.758;6.872;2023-04-25T06:06:04;7.00;99.90
37530;DHT22;23374;52.758;6.872;2023-04-25T06:08:25;6.90;1.00
37530;DHT22;23374;52.758;6.872;2023-04-25T06:10:45;6.90;1.00
37530;DHT22;23374;52.758;6.872;2023-04-25T06:13:05;6.90;1.00
37530;DHT22;23374;52.758;6.872;2023-04-25T06:15:25;7.00;1.00
37530;DHT22;23374;52.758;6.872;2023-04-25T06:17:46;7.00;1.00
37530;DHT22;23374;52.758;6.872;2023-04-25T06:20:08;7.10;1.00
37530;DHT22;23374;52.758;6.872;2023-04-25T06:22:28;7.10;1.00
37530;DHT22;23374;52.758;6.872;2023-04-25T06:24:49;7.20;1.00
37530;DHT22;23374;52.758;6.872;2023-04-25T06:27:09;7.20;1.00
37530;DHT22;23374;52.758;6.872;2023-04-25T06:29:29;7.30;1.00
37530;DHT22;23374;52.758;6.872;2023-04-25T06:31:50;7.30;1.00
37530;DHT22;23374;52.758;6.872;2023-04-25T06:34:11;7.30;99.90
37530;DHT22;23374;52.758;6.872;2023-04-25T06:36:31;7.30;99.90
37530;DHT22;23374;52.758;6.872;2023-04-25T06:38:52;7.30;1.00
37530;DHT22;23374;52.758;6.872;2023-04-25T06:41:15;7.30;1.00
37530;DHT22;23374;52.758;6.872;2023-04-25T06:43:35;7.40;1.00
37530;DHT22;23374;52.758;6.872;2023-04-25T06:45:56;7.50;99.90
37530;DHT22;23374;52.758;6.872;2023-04-25T06:48:16;7.50;99.90
37530;DHT22;23374;52.758;6.872;2023-04-25T06:50:36;7.50;1.00
37530;DHT22;23374;52.758;6.872;2023-04-25T06:52:57;7.50;1.00
37530;DHT22;23374;52.758;6.872;2023-04-25T06:55:17;7.60;1.00
37530;DHT22;23374;52.758;6.872;2023-04-25T06:57:40;7.60;99.90
37530;DHT22;23374;52.758;6.872;2023-04-25T07:00:00;7.60;99.90
37530;DHT22;23374;52.758;6.872;2023-04-25T07:02:21;7.60;99.90
37530;DHT22;23374;52.758;6.872;2023-04-25T07:04:42;7.60;99.90
37530;DHT22;23374;52.758;6.872;2023-04-25T07:07:02;7.60;1.00
37530;DHT22;23374;52.758;6.872;2023-04-25T07:09:23;7.60;97.90
37530;DHT22;23374;52.758;6.872;2023-04-25T07:11:43;7.70;99.90
37530;DHT22;23374;52.758;6.872;2023-04-25T07:14:04;7.70;1.00
37530;DHT22;23374;52.758;6.872;2023-04-25T07:16:24;7.70;1.00
37530;DHT22;23374;52.758;6.872;2023-04-25T07:18:45;7.80;1.00
37530;DHT22;23374;52.758;6.872;2023-04-25T07:21:05;7.90;1.00
37530;DHT22;23374;52.758;6.872;2023-04-25T07:23:26;8.00;99.90
37530;DHT22;23374;52.758;6.872;2023-04-25T07:25:46;8.00;99.90
37530;DHT22;23374;52.758;6.872;2023-04-25T07:28:07;8.10;1.00
37530;DHT22;23374;52.758;6.872;2023-04-25T07:30:27;8.20;1.00
37530;DHT22;23374;52.758;6.872;2023-04-25T07:32:48;8.20;1.00
37530;DHT22;23374;52.758;6.872;2023-04-25T07:35:09;8.20;1.00
37530;DHT22;23374;52.758;6.872;2023-04-25T07:37:29;8.30;99.90
37530;DHT22;23374;52.758;6.872;2023-04-25T07:39:50;8.20;99.90
37530;DHT22;23374;52.758;6.872;2023-04-25T07:42:10;8.20;1.00
37530;DHT22;23374;52.758;6.872;2023-04-25T07:44:31;8.20;1.00
37530;DHT22;23374;52.758;6.872;2023-04-25T07:46:52;8.30;99.90
37530;DHT22;23374;52.758;6.872;2023-04-25T07:49:12;8.30;1.00
37530;DHT22;23374;52.758;6.872;2023-04-25T07:51:32;8.30;99.90
37530;DHT22;23374;52.758;6.872;2023-04-25T07:53:52;8.30;42.50
37530;DHT22;23374;52.758;6.872;2023-04-25T07:56:13;8.30;96.20
37530;DHT22;23374;52.758;6.872;2023-04-25T07:58:33;8.30;15.20
37530;DHT22;23374;52.758;6.872;2023-04-25T08:00:54;8.30;1.00
37530;DHT22;23374;52.758;6.872;2023-04-25T08:03:14;8.30;99.90
37530;DHT22;23374;52.758;6.872;2023-04-25T08:05:35;8.40;99.90
37530;DHT22;23374;52.758;6.872;2023-04-25T08:07:55;8.40;1.00
37530;DHT22;23374;52.758;6.872;2023-04-25T08:10:16;8.50;99.90
37530;DHT22;23374;52.758;6.872;2023-04-25T08:12:37;8.50;99.90
37530;DHT22;23374;52.758;6.872;2023-04-25T08:14:57;8.50;2.00
37530;DHT22;23374;52.758;6.872;2023-04-25T08:17:18;8.60;99.90
37530;DHT22;23374;52.758;6.872;2023-04-25T08:19:38;8.60;1.00
37530;DHT22;23374;52.758;6.872;2023-04-25T08:21:59;8.60;1.00
37530;DHT22;23374;52.758;6.872;2023-04-25T08:24:19;8.60;1.00
37530;DHT22;23374;52.758;6.872;2023-04-25T08:26:40;8.60;99.90
37530;DHT22;23374;52.758;6.872;2023-04-25T08:29:01;8.60;99.90
37530;DHT22;23374;52.758;6.872;2023-04-25T08:31:21;8.70;99.90
37530;DHT22;23374;52.758;6.872;2023-04-25T08:33:41;8.80;99.90
37530;DHT22;23374;52.758;6.872;2023-04-25T08:36:02;8.90;1.00
37530;DHT22;23374;52.758;6.872;2023-04-25T08:38:22;9.10;1.00
37530;DHT22;23374;52.758;6.872;2023-04-25T08:40:43;9.20;1.00
37530;DHT22;23374;52.758;6.872;2023-04-25T08:43:05;9.20;1.00
37530;DHT22;23374;52.758;6.872;2023-04-25T08:45:31;9.10;1.00
37530;DHT22;23374;52.758;6.872;2023-04-25T08:47:52;8.90;1.00
37530;DHT22;23374;52.758;6.872;2023-04-25T08:50:13;8.80;1.00
37530;DHT22;23374;52.758;6.872;2023-04-25T08:52:49;8.60;99.90
37530;DHT22;23374;52.758;6.872;2023-04-25T08:55:13;8.50;1.00
37530;DHT22;23374;52.758;6.872;2023-04-25T08:57:34;8.30;1.00
37530;DHT22;23374;52.758;6.872;2023-04-25T08:59:56;8.20;64.10
37530;DHT22;23374;52.758;6.872;2023-04-25T09:02:18;8.20;99.90
37530;DHT22;23374;52.758;6.872;2023-04-25T09:04:43;8.20;1.00
37530;DHT22;23374;52.758;6.872;2023-04-25T09:07:03;8.20;94.70
37530;DHT22;23374;52.758;6.872;2023-04-25T09:09:24;8.30;34.50
37530;DHT22;23374;52.758;6.872;2023-04-25T09:11:44;8.40;1.00
37530;DHT22;23374;52.758;6.872;2023-04-25T09:14:13;8.50;99.90
37530;DHT22;23374;52.758;6.872;2023-04-25T09:16:33;8.70;1.00
37530;DHT22;23374;52.758;6.872;2023-04-25T09:18:54;8.80;38.90
37530;DHT22;23374;52.758;6.872;2023-04-25T09:21:15;9.00;1.00
37530;DHT22;23374;52.758;6.872;2023-04-25T09:23:48;9.20;1.00
37530;DHT22;23374;52.758;6.872;2023-04-25T09:26:08;9.30;1.00
37530;DHT22;23374;52.758;6.872;2023-04-25T09:28:29;9.50;99.90
37530;DHT22;23374;52.758;6.872;2023-04-25T09:30:49;9.50;99.90
37530;DHT22;23374;52.758;6.872;2023-04-25T09:33:10;9.50;99.90
37530;DHT22;23374;52.758;6.872;2023-04-25T09:35:45;9.50;99.90
37530;DHT22;23374;52.758;6.872;2023-04-25T09:38:14;9.60;21.60
37530;DHT22;23374;52.758;6.872;2023-04-25T09:40:42;9.80;91.70
37530;DHT22;23374;52.758;6.872;2023-04-25T09:43:29;9.90;1.00
37530;DHT22;23374;52.758;6.872;2023-04-25T09:45:52;9.80;68.50
37530;DHT22;23374;52.758;6.872;2023-04-25T09:48:18;9.70;99.90
37530;DHT22;23374;52.758;6.872;2023-04-25T09:50:42;9.50;79.90
37530;DHT22;23374;52.758;6.872;2023-04-25T09:53:04;9.30;99.90
37530;DHT22;23374;52.758;6.872;2023-04-25T09:55:35;9.20;1.00
37530;DHT22;23374;52.758;6.872;2023-04-25T09:57:57;9.00;99.90
37530;DHT22;23374;52.758;6.872;2023-04-25T10:00:21;8.80;1.00
37530;DHT22;23374;52.758;6.872;2023-04-25T10:02:43;8.60;1.00
37530;DHT22;23374;52.758;6.872;2023-04-25T10:05:07;8.40;1.00
37530;DHT22;23374;52.758;6.872;2023-04-25T10:07:30;8.30;1.00
37530;DHT22;23374;52.758;6.872;2023-04-25T10:09:58;8.10;1.00
37530;DHT22;23374;52.758;6.872;2023-04-25T10:12:19;8.10;99.90
37530;DHT22;23374;52.758;6.872;2023-04-25T10:14:41;8.10;99.90
37530;DHT22;23374;52.758;6.872;2023-04-25T10:17:02;8.20;99.90
37530;DHT22;23374;52.758;6.872;2023-04-25T10:19:24;8.30;53.30
37530;DHT22;23374;52.758;6.872;2023-04-25T10:22:37;8.40;1.00
37530;DHT22;23374;52.758;6.872;2023-04-25T10:24:58;8.60;99.90
37530;DHT22;23374;52.758;6.872;2023-04-25T10:27:19;8.70;1.00
37530;DHT22;23374;52.758;6.872;2023-04-25T10:29:41;8.80;1.00
37530;DHT22;23374;52.758;6.872;2023-04-25T10:32:04;8.90;99.90
37530;DHT22;23374;52.758;6.872;2023-04-25T10:34:41;8.90;99.90
37530;DHT22;23374;52.758;6.872;2023-04-25T10:37:02;9.00;1.00
37530;DHT22;23374;52.758;6.872;2023-04-25T10:39:27;9.10;1.00
37530;DHT22;23374;52.758;6.872;2023-04-25T10:41:57;9.10;99.90
37530;DHT22;23374;52.758;6.872;2023-04-25T10:44:18;9.10;10.00
37530;DHT22;23374;52.758;6.872;2023-04-25T10:46:39;8.90;22.40
37530;DHT22;23374;52.758;6.872;2023-04-25T10:49:01;8.70;99.90
37530;DHT22;23374;52.758;6.872;2023-04-25T10:51:33;8.60;99.90
37530;DHT22;23374;52.758;6.872;2023-04-25T10:54:07;8.50;99.90
37530;DHT22;23374;52.758;6.872;2023-04-25T10:56:39;8.50;1.00
37530;DHT22;23374;52.758;6.872;2023-04-25T10:59:34;8.70;1.00
37530;DHT22;23374;52.758;6.872;2023-04-25T11:01:54;8.90;1.00
37530;DHT22;23374;52.758;6.872;2023-04-25T11:04:51;9.10;99.90
37530;DHT22;23374;52.758;6.872;2023-04-25T11:10:03;9.40;1.00
37530;DHT22;23374;52.758;6.872;2023-04-25T11:12:25;9.50;99.90
37530;DHT22;23374;52.758;6.872;2023-04-25T11:14:45;9.60;99.90
37530;DHT22;23374;52.758;6.872;2023-04-25T11:17:06;9.60;99.90
37530;DHT22;23374;52.758;6.872;2023-04-25T11:19:27;9.70;97.20
37530;DHT22;23374;52.758;6.872;2023-04-25T11:21:47;9.70;1.00
37530;DHT22;23374;52.758;6.872;2023-04-25T11:24:09;9.70;1.00
37530;DHT22;23374;52.758;6.872;2023-04-25T11:26:30;9.70;1.00
37530;DHT22;23374;52.758;6.872;2023-04-25T11:28:51;9.70;56.00
37530;DHT22;23374;52.758;6.872;2023-04-25T11:31:11;9.70;99.90
37530;DHT22;23374;52.758;6.872;2023-04-25T11:33:31;9.50;99.90
37530;DHT22;23374;52.758;6.872;2023-04-25T11:35:54;9.10;1.00
37530;DHT22;23374;52.758;6.872;2023-04-25T11:38:18;8.90;1.00
37530;DHT22;23374;52.758;6.872;2023-04-25T11:40:38;8.90;99.90
37530;DHT22;23374;52.758;6.872;2023-04-25T11:43:02;9.00;1.00
37530;DHT22;23374;52.758;6.872;2023-04-25T11:45:23;9.20;1.00
37530;DHT22;23374;52.758;6.872;2023-04-25T11:47:43;9.30;1.00
37530;DHT22;23374;52.758;6.872;2023-04-25T11:50:06;9.20;1.00
37530;DHT22;23374;52.758;6.872;2023-04-25T11:52:46;9.00;73.00
37530;DHT22;23374;52.758;6.872;2023-04-25T11:55:14;8.80;1.00
37530;DHT22;23374;52.758;6.872;2023-04-25T11:57:31;8.70;99.90
37530;DHT22;23374;52.758;6.872;2023-04-25T11:59:52;8.70;1.00
37530;DHT22;23374;52.758;6.872;2023-04-25T12:02:25;8.70;1.00
37530;DHT22;23374;52.758;6.872;2023-04-25T12:04:46;8.90;99.90
37530;DHT22;23374;52.758;6.872;2023-04-25T12:07:09;9.00;1.00
37530;DHT22;23374;52.758;6.872;2023-04-25T12:09:32;9.20;1.00
37530;DHT22;23374;52.758;6.872;2023-04-25T12:11:58;9.30;1.00
37530;DHT22;23374;52.758;6.872;2023-04-25T12:14:28;9.40;1.00
37530;DHT22;23374;52.758;6.872;2023-04-25T12:16:48;9.60;1.00
37530;DHT22;23374;52.758;6.872;2023-04-25T12:19:09;9.70;99.90
37530;DHT22;23374;52.758;6.872;2023-04-25T12:21:30;9.80;99.90
37530;DHT22;23374;52.758;6.872;2023-04-25T12:23:52;9.90;99.90
37530;DHT22;23374;52.758;6.872;2023-04-25T12:26:14;10.00;75.30
37530;DHT22;23374;52.758;6.872;2023-04-25T12:28:35;10.10;21.30
37530;DHT22;23374;52.758;6.872;2023-04-25T12:31:06;10.00;1.00
37530;DHT22;23374;52.758;6.872;2023-04-25T12:33:33;10.00;99.90
37530;DHT22;23374;52.758;6.872;2023-04-25T12:35:54;10.10;99.90
37530;DHT22;23374;52.758;6.872;2023-04-25T12:38:28;10.00;99.90
37530;DHT22;23374;52.758;6.872;2023-04-25T12:40:54;10.00;22.80
37530;DHT22;23374;52.758;6.872;2023-04-25T12:43:15;10.10;99.90
37530;DHT22;23374;52.758;6.872;2023-04-25T12:45:35;10.20;99.90
37530;DHT22;23374;52.758;6.872;2023-04-25T12:47:55;10.20;1.00
37530;DHT22;23374;52.758;6.872;2023-04-25T12:50:16;10.20;99.90
37530;DHT22;23374;52.758;6.872;2023-04-25T12:52:36;10.20;65.20
37530;DHT22;23374;52.758;6.872;2023-04-25T12:54:57;10.30;99.90
37530;DHT22;23374;52.758;6.872;2023-04-25T12:57:18;10.30;99.90
37530;DHT22;23374;52.758;6.872;2023-04-25T12:59:39;10.30;99.90
37530;DHT22;23374;52.758;6.872;2023-04-25T13:01:59;10.30;1.00
37530;DHT22;23374;52.758;6.872;2023-04-25T13:04:20;10.40;1.00
37530;DHT22;23374;52.758;6.872;2023-04-25T13:06:41;10.50;1.00
37530;DHT22;23374;52.758;6.872;2023-04-25T13:09:01;10.60;99.90
37530;DHT22;23374;52.758;6.872;2023-04-25T13:11:23;10.60;1.00
37530;DHT22;23374;52.758;6.872;2023-04-25T13:13:44;10.60;1.00
37530;DHT22;23374;52.758;6.872;2023-04-25T13:16:05;10.60;1.00
37530;DHT22;23374;52.758;6.872;2023-04-25T13:18:26;10.50;1.00
37530;DHT22;23374;52.758;6.872;2023-04-25T13:20:46;10.40;27.50
37530;DHT22;23374;52.758;6.872;2023-04-25T13:23:06;10.30;1.00
37530;DHT22;23374;52.758;6.872;2023-04-25T13:25:27;10.10;1.00
37530;DHT22;23374;52.758;6.872;2023-04-25T13:27:48;9.90;1.00
37530;DHT22;23374;52.758;6.872;2023-04-25T13:30:09;9.80;1.00
37530;DHT22;23374;52.758;6.872;2023-04-25T13:32:29;9.70;1.00
37530;DHT22;23374;52.758;6.872;2023-04-25T13:34:51;9.60;1.00
37530;DHT22;23374;52.758;6.872;2023-04-25T13:37:11;9.70;99.90
37530;DHT22;23374;52.758;6.872;2023-04-25T13:39:31;9.80;1.00
37530;DHT22;23374;52.758;6.872;2023-04-25T13:41:52;9.90;1.00
37530;DHT22;23374;52.758;6.872;2023-04-25T13:44:12;10.10;1.00
37530;DHT22;23374;52.758;6.872;2023-04-25T13:46:32;10.30;1.00
37530;DHT22;23374;52.758;6.872;2023-04-25T13:48:53;10.30;1.00
37530;DHT22;23374;52.758;6.872;2023-04-25T13:51:14;10.30;99.90
37530;DHT22;23374;52.758;6.872;2023-04-25T13:53:35;10.30;99.90
37530;DHT22;23374;52.758;6.872;2023-04-25T13:55:56;10.30;1.00
37530;DHT22;23374;52.758;6.872;2023-04-25T13:58:16;10.20;1.00
37530;DHT22;23374;52.758;6.872;2023-04-25T14:00:38;10.10;1.00
37530;DHT22;23374;52.758;6.872;2023-04-25T14:02:58;10.10;1.00
37530;DHT22;23374;52.758;6.872;2023-04-25T14:05:18;10.20;40.40
37530;DHT22;23374;52.758;6.872;2023-04-25T14:07:39;10.30;1.00
37530;DHT22;23374;52.758;6.872;2023-04-25T14:09:59;10.40;1.00
37530;DHT22;23374;52.758;6.872;2023-04-25T14:12:20;10.50;1.00
37530;DHT22;23374;52.758;6.872;2023-04-25T14:14:40;10.60;1.00
37530;DHT22;23374;52.758;6.872;2023-04-25T14:17:01;10.60;1.00
37530;DHT22;23374;52.758;6.872;2023-04-25T14:19:22;10.60;99.90
37530;DHT22;23374;52.758;6.872;2023-04-25T14:21:42;10.40;99.90
37530;DHT22;23374;52.758;6.872;2023-04-25T14:24:04;10.00;99.90
37530;DHT22;23374;52.758;6.872;2023-04-25T14:26:25;9.70;99.90
37530;DHT22;23374;52.758;6.872;2023-04-25T14:28:45;9.50;1.00
37530;DHT22;23374;52.758;6.872;2023-04-25T14:31:06;9.60;1.00
37530;DHT22;23374;52.758;6.872;2023-04-25T14:33:27;9.70;50.40
37530;DHT22;23374;52.758;6.872;2023-04-25T14:35:47;9.90;1.00
37530;DHT22;23374;52.758;6.872;2023-04-25T14:38:07;10.10;99.90
37530;DHT22;23374;52.758;6.872;2023-04-25T14:40:28;10.20;1.00
37530;DHT22;23374;52.758;6.872;2023-04-25T14:42:48;10.20;1.00
37530;DHT22;23374;52.758;6.872;2023-04-25T14:45:09;10.20;1.00
37530;DHT22;23374;52.758;6.872;2023-04-25T14:47:30;10.30;1.00
37530;DHT22;23374;52.758;6.872;2023-04-25T14:49:51;10.40;99.90
37530;DHT22;23374;52.758;6.872;2023-04-25T14:52:14;10.50;99.90
37530;DHT22;23374;52.758;6.872;2023-04-25T14:54:34;10.50;99.90
37530;DHT22;23374;52.758;6.872;2023-04-25T14:56:55;10.60;99.90
37530;DHT22;23374;52.758;6.872;2023-04-25T14:59:15;10.50;99.90
37530;DHT22;23374;52.758;6.872;2023-04-25T15:01:35;10.50;99.90
37530;DHT22;23374;52.758;6.872;2023-04-25T15:03:56;10.60;99.90
37530;DHT22;23374;52.758;6.872;2023-04-25T15:06:17;10.60;99.90
37530;DHT22;23374;52.758;6.872;2023-04-25T15:08:37;10.60;99.90
37530;DHT22;23374;52.758;6.872;2023-04-25T15:10:58;10.70;16.60
37530;DHT22;23374;52.758;6.872;2023-04-25T15:13:18;10.80;99.90
37530;DHT22;23374;52.758;6.872;2023-04-25T15:15:39;10.80;1.00
37530;DHT22;23374;52.758;6.872;2023-04-25T15:17:59;10.90;27.40
37530;DHT22;23374;52.758;6.872;2023-04-25T15:20:21;10.80;1.00